sensor_id;sensor_type;location;lat;lon;timestamp;temperature;humidity
5192;DHT22;2615;44.524;11.284;2023-02-15T00:02:04;7.10;46.80
5192;DHT22;2615;44.524;11.284;2023-02-15T00:04:32;7.10;46.90
5192;DHT22;2615;44.524;11.284;2023-02-15T00:07:15;7.10;46.90
5192;DHT22;2615;44.524;11.284;2023-02-15T00:09:46;7.10;46.90
5192;DHT22;2615;44.524;11.284;2023-02-15T00:12:15;7.10;46.90
5192;DHT22;2615;44.524;11.284;2023-02-15T00:14:43;7.10;46.90
5192;DHT22;2615;44.524;11.284;2023-02-15T00:17:12;7.00;46.90
5192;DHT22;2615;44.524;11.284;2023-02-15T00:19:40;7.00;46.90
5192;DHT22;2615;44.524;11.284;2023-02-15T00:22:08;7.00;46.90
5192;DHT22;2615;44.524;11.284;2023-02-15T00:24:36;7.00;47.00
5192;DHT22;2615;44.524;11.284;2023-02-15T00:27:06;7.00;47.00
5192;DHT22;2615;44.524;11.284;2023-02-15T00:29:35;7.00;47.00
5192;DHT22;2615;44.524;11.284;2023-02-15T00:32:04;7.00;47.10
5192;DHT22;2615;44.524;11.284;2023-02-15T00:34:32;6.90;47.10
5192;DHT22;2615;44.524;11.284;2023-02-15T00:37:01;6.90;47.10
5192;DHT22;2615;44.524;11.284;2023-02-15T00:39:29;6.90;47.10
5192;DHT22;2615;44.524;11.284;2023-02-15T00:41:57;6.90;47.10
5192;DHT22;2615;44.524;11.284;2023-02-15T00:44:26;6.90;47.20
5192;DHT22;2615;44.524;11.284;2023-02-15T00:46:54;6.90;47.20
5192;DHT22;2615;44.524;11.284;2023-02-15T00:49:22;6.80;47.10
5192;DHT22;2615;44.524;11.284;2023-02-15T00:51:50;6.80;47.20
5192;DHT22;2615;44.524;11.284;2023-02-15T00:54:19;6.80;47.20
5192;DHT22;2615;44.524;11.284;2023-02-15T00:56:47;6.80;47.30
5192;DHT22;2615;44.524;11.284;2023-02-15T00:59:15;6.80;47.30
5192;DHT22;2615;44.524;11.284;2023-02-15T01:01:44;6.80;47.30
5192;DHT22;2615;44.524;11.284;2023-02-15T01:04:12;6.80;47.40
5192;DHT22;2615;44.524;11.284;2023-02-15T01:06:40;6.80;47.40
5192;DHT22;2615;44.524;11.284;2023-02-15T01:09:08;6.80;47.40
5192;DHT22;2615;44.524;11.284;2023-02-15T01:11:36;6.80;47.40
5192;DHT22;2615;44.524;11.284;2023-02-15T01:14:05;6.80;47.40
5192;DHT22;2615;44.524;11.284;2023-02-15T01:16:33;6.80;47.40
5192;DHT22;2615;44.524;11.284;2023-02-15T01:19:02;6.80;47.40
5192;DHT22;2615;44.524;11.284;2023-02-15T01:21:30;6.80;47.40
5192;DHT22;2615;44.524;11.284;2023-02-15T01:24:01;6.80;47.40
5192;DHT22;2615;44.524;11.284;2023-02-15T01:26:29;6.80;47.40
5192;DHT22;2615;44.524;11.284;2023-02-15T01:28:57;6.80;47.40
5192;DHT22;2615;44.524;11.284;2023-02-15T01:31:25;6.80;47.40
5192;DHT22;2615;44.524;11.284;2023-02-15T01:33:53;6.80;47.40
5192;DHT22;2615;44.524;11.284;2023-02-15T01:36:23;6.80;47.40
5192;DHT22;2615;44.524;11.284;2023-02-15T01:38:51;6.80;47.40
5192;DHT22;2615;44.524;11.284;2023-02-15T01:41:19;6.70;47.40
5192;DHT22;2615;44.524;11.284;2023-02-15T01:43:51;6.70;47.50
5192;DHT22;2615;44.524;11.284;2023-02-15T01:46:23;6.70;47.50
5192;DHT22;2615;44.524;11.284;2023-02-15T01:48:55;6.60;47.40
5192;DHT22;2615;44.524;11.284;2023-02-15T01:51:27;6.60;47.40
5192;DHT22;2615;44.524;11.284;2023-02-15T01:54:00;6.60;47.50
5192;DHT22;2615;44.524;11.284;2023-02-15T01:56:31;6.60;47.50
5192;DHT22;2615;44.524;11.284;2023-02-15T01:59:04;6.60;47.50
5192;DHT22;2615;44.524;11.284;2023-02-15T02:01:32;6.60;47.60
5192;DHT22;2615;44.524;11.284;2023-02-15T02:04:07;6.50;47.50
5192;DHT22;2615;44.524;11.284;2023-02-15T02:06:39;6.50;47.60
5192;DHT22;2615;44.524;11.284;2023-02-15T02:09:07;6.50;47.50
5192;DHT22;2615;44.524;11.284;2023-02-15T02:11:36;6.50;47.50
5192;DHT22;2615;44.524;11.284;2023-02-15T02:14:07;6.50;47.60
5192;DHT22;2615;44.524;11.284;2023-02-15T02:16:41;6.50;47.60
5192;DHT22;2615;44.524;11.284;2023-02-15T02:19:37;6.40;47.50
5192;DHT22;2615;44.524;11.284;2023-02-15T02:22:39;6.40;47.60
5192;DHT22;2615;44.524;11.284;2023-02-15T02:28:29;6.40;47.60
5192;DHT22;2615;44.524;11.284;2023-02-15T02:31:20;6.30;47.50
5192;DHT22;2615;44.524;11.284;2023-02-15T02:33:59;6.30;47.60
5192;DHT22;2615;44.524;11.284;2023-02-15T02:36:33;6.30;47.50
5192;DHT22;2615;44.524;11.284;2023-02-15T02:39:12;6.30;48.10
5192;DHT22;2615;44.524;11.284;2023-02-15T02:41:50;6.30;47.60
5192;DHT22;2615;44.524;11.284;2023-02-15T02:44:24;6.20;47.50
5192;DHT22;2615;44.524;11.284;2023-02-15T02:49:32;6.20;47.20
5192;DHT22;2615;44.524;11.284;2023-02-15T02:52:00;6.20;47.70
5192;DHT22;2615;44.524;11.284;2023-02-15T02:54:30;6.20;47.70
5192;DHT22;2615;44.524;11.284;2023-02-15T02:57:01;6.20;47.70
5192;DHT22;2615;44.524;11.284;2023-02-15T02:59:33;6.20;47.70
5192;DHT22;2615;44.524;11.284;2023-02-15T03:02:06;6.20;47.70
5192;DHT22;2615;44.524;11.284;2023-02-15T03:04:45;6.20;47.70
5192;DHT22;2615;44.524;11.284;2023-02-15T03:07:17;6.10;47.70
5192;DHT22;2615;44.524;11.284;2023-02-15T03:09:50;6.10;47.70
5192;DHT22;2615;44.524;11.284;2023-02-15T03:12:21;6.10;47.70
5192;DHT22;2615;44.524;11.284;2023-02-15T03:14:52;6.10;47.80
5192;DHT22;2615;44.524;11.284;2023-02-15T03:17:23;6.10;47.80
5192;DHT22;2615;44.524;11.284;2023-02-15T03:19:57;6.00;47.70
5192;DHT22;2615;44.524;11.284;2023-02-15T03:22:29;6.00;47.70
5192;DHT22;2615;44.524;11.284;2023-02-15T03:25:01;6.00;47.80
5192;DHT22;2615;44.524;11.284;2023-02-15T03:27:34;6.00;47.80
5192;DHT22;2615;44.524;11.284;2023-02-15T03:30:05;6.00;47.90
5192;DHT22;2615;44.524;11.284;2023-02-15T03:32:35;6.00;47.90
5192;DHT22;2615;44.524;11.284;2023-02-15T03:35:06;6.00;47.90
5192;DHT22;2615;44.524;11.284;2023-02-15T03:37:37;6.00;47.90
5192;DHT22;2615;44.524;11.284;2023-02-15T03:40:09;5.90;47.80
5192;DHT22;2615;44.524;11.284;2023-02-15T03:42:59;5.90;47.90
5192;DHT22;2615;44.524;11.284;2023-02-15T03:45:31;5.90;47.90
5192;DHT22;2615;44.524;11.284;2023-02-15T03:48:01;5.80;47.80
5192;DHT22;2615;44.524;11.284;2023-02-15T03:50:32;5.80;47.90
5192;DHT22;2615;44.524;11.284;2023-02-15T03:53:22;5.80;47.90
5192;DHT22;2615;44.524;11.284;2023-02-15T03:55:54;5.80;48.30
5192;DHT22;2615;44.524;11.284;2023-02-15T03:58:22;5.80;48.30
5192;DHT22;2615;44.524;11.284;2023-02-15T04:01:13;5.80;48.60
5192;DHT22;2615;44.524;11.284;2023-02-15T04:04:05;5.80;48.90
5192;DHT22;2615;44.524;11.284;2023-02-15T04:06:36;5.80;49.00
5192;DHT22;2615;44.524;11.284;2023-02-15T04:09:04;5.70;49.20
5192;DHT22;2615;44.524;11.284;2023-02-15T04:11:50;5.70;49.20
5192;DHT22;2615;44.524;11.284;2023-02-15T04:14:18;5.70;49.10
5192;DHT22;2615;44.524;11.284;2023-02-15T04:17:09;5.70;49.40
5192;DHT22;2615;44.524;11.284;2023-02-15T04:19:37;5.70;49.80
5192;DHT22;2615;44.524;11.284;2023-02-15T04:22:24;5.70;49.80
5192;DHT22;2615;44.524;11.284;2023-02-15T04:25:10;5.70;49.20
5192;DHT22;2615;44.524;11.284;2023-02-15T04:27:40;5.60;49.50
5192;DHT22;2615;44.524;11.284;2023-02-15T04:30:10;5.60;49.00
5192;DHT22;2615;44.524;11.284;2023-02-15T04:32:39;5.60;48.90
5192;DHT22;2615;44.524;11.284;2023-02-15T04:35:08;5.60;48.90
5192;DHT22;2615;44.524;11.284;2023-02-15T04:37:38;5.60;49.10
5192;DHT22;2615;44.524;11.284;2023-02-15T04:40:08;5.60;49.70
5192;DHT22;2615;44.524;11.284;2023-02-15T04:42:36;5.60;49.90
5192;DHT22;2615;44.524;11.284;2023-02-15T04:45:05;5.60;51.60
5192;DHT22;2615;44.524;11.284;2023-02-15T04:47:33;5.60;53.00
5192;DHT22;2615;44.524;11.284;2023-02-15T04:50:01;5.60;51.10
5192;DHT22;2615;44.524;11.284;2023-02-15T04:52:30;5.50;47.60
5192;DHT22;2615;44.524;11.284;2023-02-15T04:54:59;5.50;48.00
5192;DHT22;2615;44.524;11.284;2023-02-15T04:57:27;5.50;48.00
5192;DHT22;2615;44.524;11.284;2023-02-15T04:59:55;5.50;47.90
5192;DHT22;2615;44.524;11.284;2023-02-15T05:02:23;5.50;48.00
5192;DHT22;2615;44.524;11.284;2023-02-15T05:04:52;5.50;48.00
5192;DHT22;2615;44.524;11.284;2023-02-15T05:07:20;5.40;47.90
5192;DHT22;2615;44.524;11.284;2023-02-15T05:09:48;5.40;48.00
5192;DHT22;2615;44.524;11.284;2023-02-15T05:12:17;5.40;48.00
5192;DHT22;2615;44.524;11.284;2023-02-15T05:14:45;5.40;48.00
5192;DHT22;2615;44.524;11.284;2023-02-15T05:17:13;5.40;48.00
5192;DHT22;2615;44.524;11.284;2023-02-15T05:19:41;5.40;48.10
5192;DHT22;2615;44.524;11.284;2023-02-15T05:22:09;5.30;48.00
5192;DHT22;2615;44.524;11.284;2023-02-15T05:24:37;5.40;48.10
5192;DHT22;2615;44.524;11.284;2023-02-15T05:27:24;5.40;48.10
5192;DHT22;2615;44.524;11.284;2023-02-15T05:30:13;5.30;48.00
5192;DHT22;2615;44.524;11.284;2023-02-15T05:32:41;5.30;48.00
5192;DHT22;2615;44.524;11.284;2023-02-15T05:35:13;5.30;48.00
5192;DHT22;2615;44.524;11.284;2023-02-15T05:37:42;5.30;48.10
5192;DHT22;2615;44.524;11.284;2023-02-15T05:40:10;5.30;48.10
5192;DHT22;2615;44.524;11.284;2023-02-15T05:42:40;5.30;48.10
5192;DHT22;2615;44.524;11.284;2023-02-15T05:45:08;5.30;48.10
5192;DHT22;2615;44.524;11.284;2023-02-15T05:47:37;5.30;48.10
5192;DHT22;2615;44.524;11.284;2023-02-15T05:50:06;5.20;48.10
5192;DHT22;2615;44.524;11.284;2023-02-15T05:52:34;5.30;48.20
5192;DHT22;2615;44.524;11.284;2023-02-15T05:55:02;5.20;48.10
5192;DHT22;2615;44.524;11.284;2023-02-15T05:57:31;5.20;48.70
5192;DHT22;2615;44.524;11.284;2023-02-15T06:00:00;5.20;48.10
5192;DHT22;2615;44.524;11.284;2023-02-15T06:02:33;5.20;48.20
5192;DHT22;2615;44.524;11.284;2023-02-15T06:05:01;5.20;48.20
5192;DHT22;2615;44.524;11.284;2023-02-15T06:09:58;5.20;47.70
5192;DHT22;2615;44.524;11.284;2023-02-15T06:12:26;5.20;48.30
5192;DHT22;2615;44.524;11.284;2023-02-15T06:14:54;5.20;48.30
5192;DHT22;2615;44.524;11.284;2023-02-15T06:17:24;5.20;48.30
5192;DHT22;2615;44.524;11.284;2023-02-15T06:19:52;5.20;48.30
5192;DHT22;2615;44.524;11.284;2023-02-15T06:22:20;5.20;48.30
5192;DHT22;2615;44.524;11.284;2023-02-15T06:24:48;5.20;48.30
5192;DHT22;2615;44.524;11.284;2023-02-15T06:27:16;5.20;48.30
5192;DHT22;2615;44.524;11.284;2023-02-15T06:29:44;5.20;48.30
5192;DHT22;2615;44.524;11.284;2023-02-15T06:32:12;5.20;48.30
5192;DHT22;2615;44.524;11.284;2023-02-15T06:34:42;5.20;48.30
5192;DHT22;2615;44.524;11.284;2023-02-15T06:37:10;5.30;48.30
5192;DHT22;2615;44.524;11.284;2023-02-15T06:39:38;5.30;48.30
5192;DHT22;2615;44.524;11.284;2023-02-15T06:42:06;5.30;48.30
5192;DHT22;2615;44.524;11.284;2023-02-15T06:44:34;5.40;48.40
5192;DHT22;2615;44.524;11.284;2023-02-15T06:47:02;5.40;48.30
5192;DHT22;2615;44.524;11.284;2023-02-15T06:49:30;5.30;48.20
5192;DHT22;2615;44.524;11.284;2023-02-15T06:51:59;5.40;48.30
5192;DHT22;2615;44.524;11.284;2023-02-15T06:54:27;5.40;48.30
5192;DHT22;2615;44.524;11.284;2023-02-15T06:56:56;5.50;48.30
5192;DHT22;2615;44.524;11.284;2023-02-15T06:59:24;5.50;48.20
5192;DHT22;2615;44.524;11.284;2023-02-15T07:01:52;5.50;48.20
5192;DHT22;2615;44.524;11.284;2023-02-15T07:04:20;5.60;48.30
5192;DHT22;2615;44.524;11.284;2023-02-15T07:06:48;5.70;48.30
5192;DHT22;2615;44.524;11.284;2023-02-15T07:09:20;5.70;48.20
5192;DHT22;2615;44.524;11.284;2023-02-15T07:11:49;5.80;48.20
5192;DHT22;2615;44.524;11.284;2023-02-15T07:14:35;5.90;48.20
5192;DHT22;2615;44.524;11.284;2023-02-15T07:17:03;6.00;48.20
5192;DHT22;2615;44.524;11.284;2023-02-15T07:19:40;6.00;48.10
5192;DHT22;2615;44.524;11.284;2023-02-15T07:22:08;6.10;48.10
5192;DHT22;2615;44.524;11.284;2023-02-15T07:24:37;6.20;48.10
5192;DHT22;2615;44.524;11.284;2023-02-15T07:27:06;6.30;48.20
5192;DHT22;2615;44.524;11.284;2023-02-15T07:29:34;6.40;48.10
5192;DHT22;2615;44.524;11.284;2023-02-15T07:32:02;6.40;48.00
5192;DHT22;2615;44.524;11.284;2023-02-15T07:34:30;6.50;48.10
5192;DHT22;2615;44.524;11.284;2023-02-15T07:36:58;6.60;48.00
5192;DHT22;2615;44.524;11.284;2023-02-15T07:39:27;6.70;48.00
5192;DHT22;2615;44.524;11.284;2023-02-15T07:41:56;6.80;47.90
5192;DHT22;2615;44.524;11.284;2023-02-15T07:44:24;6.90;47.90
5192;DHT22;2615;44.524;11.284;2023-02-15T07:46:52;7.10;47.90
5192;DHT22;2615;44.524;11.284;2023-02-15T07:49:21;7.20;47.90
5192;DHT22;2615;44.524;11.284;2023-02-15T07:51:49;7.30;47.80
5192;DHT22;2615;44.524;11.284;2023-02-15T07:54:22;7.40;47.70
5192;DHT22;2615;44.524;11.284;2023-02-15T07:56:56;7.50;47.70
5192;DHT22;2615;44.524;11.284;2023-02-15T07:59:24;7.60;47.60
5192;DHT22;2615;44.524;11.284;2023-02-15T08:01:52;7.80;47.60
5192;DHT22;2615;44.524;11.284;2023-02-15T08:04:23;7.90;47.50
5192;DHT22;2615;44.524;11.284;2023-02-15T08:06:53;8.10;47.50
5192;DHT22;2615;44.524;11.284;2023-02-15T08:09:22;8.20;47.40
5192;DHT22;2615;44.524;11.284;2023-02-15T08:11:50;8.30;47.30
5192;DHT22;2615;44.524;11.284;2023-02-15T08:14:21;8.50;47.20
5192;DHT22;2615;44.524;11.284;2023-02-15T08:16:50;8.60;47.10
5192;DHT22;2615;44.524;11.284;2023-02-15T08:19:21;8.80;47.10
5192;DHT22;2615;44.524;11.284;2023-02-15T08:21:52;8.90;47.00
5192;DHT22;2615;44.524;11.284;2023-02-15T08:24:22;9.10;46.90
5192;DHT22;2615;44.524;11.284;2023-02-15T08:26:51;9.20;46.80
5192;DHT22;2615;44.524;11.284;2023-02-15T08:29:22;9.40;46.70
5192;DHT22;2615;44.524;11.284;2023-02-15T08:31:55;9.60;46.70
5192;DHT22;2615;44.524;11.284;2023-02-15T08:34:25;9.80;46.50
5192;DHT22;2615;44.524;11.284;2023-02-15T08:36:53;10.00;45.50
5192;DHT22;2615;44.524;11.284;2023-02-15T08:39:22;10.10;45.30
5192;DHT22;2615;44.524;11.284;2023-02-15T08:41:50;10.30;45.20
5192;DHT22;2615;44.524;11.284;2023-02-15T08:44:20;10.50;45.10
5192;DHT22;2615;44.524;11.284;2023-02-15T08:46:49;10.70;45.00
5192;DHT22;2615;44.524;11.284;2023-02-15T08:49:18;10.80;44.80
5192;DHT22;2615;44.524;11.284;2023-02-15T08:51:47;10.90;44.60
5192;DHT22;2615;44.524;11.284;2023-02-15T08:54:18;10.90;44.40
5192;DHT22;2615;44.524;11.284;2023-02-15T08:56:47;11.00;44.30
5192;DHT22;2615;44.524;11.284;2023-02-15T08:59:17;11.10;44.10
5192;DHT22;2615;44.524;11.284;2023-02-15T09:01:48;11.10;44.00
5192;DHT22;2615;44.524;11.284;2023-02-15T09:04:17;11.20;44.00
5192;DHT22;2615;44.524;11.284;2023-02-15T09:06:47;11.20;44.00
5192;DHT22;2615;44.524;11.284;2023-02-15T09:09:15;11.30;43.90
5192;DHT22;2615;44.524;11.284;2023-02-15T09:11:45;11.30;43.80
5192;DHT22;2615;44.524;11.284;2023-02-15T09:14:16;11.30;44.30
5192;DHT22;2615;44.524;11.284;2023-02-15T09:16:47;11.40;43.70
5192;DHT22;2615;44.524;11.284;2023-02-15T09:19:19;11.40;43.60
5192;DHT22;2615;44.524;11.284;2023-02-15T09:21:47;11.50;43.70
5192;DHT22;2615;44.524;11.284;2023-02-15T09:24:16;11.60;43.70
5192;DHT22;2615;44.524;11.284;2023-02-15T09:26:46;11.60;43.70
5192;DHT22;2615;44.524;11.284;2023-02-15T09:29:15;11.70;43.70
5192;DHT22;2615;44.524;11.284;2023-02-15T09:31:45;11.80;43.70
5192;DHT22;2615;44.524;11.284;2023-02-15T09:34:19;11.90;43.70
5192;DHT22;2615;44.524;11.284;2023-02-15T09:36:48;12.00;43.60
5192;DHT22;2615;44.524;11.284;2023-02-15T09:39:18;12.20;43.60
5192;DHT22;2615;44.524;11.284;2023-02-15T09:42:15;12.40;43.60
5192;DHT22;2615;44.524;11.284;2023-02-15T09:45:05;12.50;43.50
5192;DHT22;2615;44.524;11.284;2023-02-15T09:50:43;13.00;43.50
5192;DHT22;2615;44.524;11.284;2023-02-15T09:53:33;13.20;43.50
5192;DHT22;2615;44.524;11.284;2023-02-15T09:56:10;13.40;43.50
5192;DHT22;2615;44.524;11.284;2023-02-15T09:58:47;13.60;43.40
5192;DHT22;2615;44.524;11.284;2023-02-15T10:01:25;13.80;43.20
5192;DHT22;2615;44.524;11.284;2023-02-15T10:04:05;14.10;43.20
5192;DHT22;2615;44.524;11.284;2023-02-15T10:06:44;14.30;43.00
5192;DHT22;2615;44.524;11.284;2023-02-15T10:12:18;14.60;42.20
5192;DHT22;2615;44.524;11.284;2023-02-15T10:17:57;15.00;42.70
5192;DHT22;2615;44.524;11.284;2023-02-15T10:20:33;15.20;42.70
5192;DHT22;2615;44.524;11.284;2023-02-15T10:23:25;15.40;42.60
5192;DHT22;2615;44.524;11.284;2023-02-15T10:26:02;15.50;42.30
5192;DHT22;2615;44.524;11.284;2023-02-15T10:28:37;15.70;42.30
5192;DHT22;2615;44.524;11.284;2023-02-15T10:31:12;15.90;42.10
5192;DHT22;2615;44.524;11.284;2023-02-15T10:33:43;16.10;41.90
5192;DHT22;2615;44.524;11.284;2023-02-15T10:36:24;16.30;41.70
5192;DHT22;2615;44.524;11.284;2023-02-15T10:39:02;16.50;41.30
5192;DHT22;2615;44.524;11.284;2023-02-15T10:41:37;16.70;41.10
5192;DHT22;2615;44.524;11.284;2023-02-15T10:44:24;16.90;40.90
5192;DHT22;2615;44.524;11.284;2023-02-15T10:47:07;17.10;40.60
5192;DHT22;2615;44.524;11.284;2023-02-15T10:49:53;17.40;40.50
5192;DHT22;2615;44.524;11.284;2023-02-15T10:52:34;17.40;40.00
5192;DHT22;2615;44.524;11.284;2023-02-15T10:55:16;17.50;39.80
5192;DHT22;2615;44.524;11.284;2023-02-15T10:57:53;17.50;39.50
5192;DHT22;2615;44.524;11.284;2023-02-15T11:00:31;17.50;39.20
5192;DHT22;2615;44.524;11.284;2023-02-15T11:03:22;17.60;39.20
5192;DHT22;2615;44.524;11.284;2023-02-15T11:06:00;17.60;39.00
5192;DHT22;2615;44.524;11.284;2023-02-15T11:08:34;17.70;38.90
5192;DHT22;2615;44.524;11.284;2023-02-15T11:11:07;17.90;39.10
5192;DHT22;2615;44.524;11.284;2023-02-15T11:13:41;18.10;38.90
5192;DHT22;2615;44.524;11.284;2023-02-15T11:16:15;18.30;38.70
5192;DHT22;2615;44.524;11.284;2023-02-15T11:18:48;18.40;38.40
5192;DHT22;2615;44.524;11.284;2023-02-15T11:21:22;18.40;38.00
5192;DHT22;2615;44.524;11.284;2023-02-15T11:23:51;18.30;37.80
5192;DHT22;2615;44.524;11.284;2023-02-15T11:26:28;18.30;37.90
5192;DHT22;2615;44.524;11.284;2023-02-15T11:28:59;18.50;37.90
5192;DHT22;2615;44.524;11.284;2023-02-15T11:31:37;18.50;37.70
5192;DHT22;2615;44.524;11.284;2023-02-15T11:34:17;18.40;37.30
5192;DHT22;2615;44.524;11.284;2023-02-15T11:36:48;18.20;37.20
5192;DHT22;2615;44.524;11.284;2023-02-15T11:39:18;18.20;37.20
5192;DHT22;2615;44.524;11.284;2023-02-15T11:41:51;18.10;37.20
5192;DHT22;2615;44.524;11.284;2023-02-15T11:44:27;18.20;37.20
5192;DHT22;2615;44.524;11.284;2023-02-15T11:46:58;18.40;37.30
5192;DHT22;2615;44.524;11.284;2023-02-15T11:49:30;18.60;37.50
5192;DHT22;2615;44.524;11.284;2023-02-15T11:52:01;18.80;37.40
5192;DHT22;2615;44.524;11.284;2023-02-15T11:54:33;19.00;37.10
5192;DHT22;2615;44.524;11.284;2023-02-15T11:57:11;19.20;36.90
5192;DHT22;2615;44.524;11.284;2023-02-15T11:59:46;19.40;36.70
5192;DHT22;2615;44.524;11.284;2023-02-15T12:02:18;19.60;36.60
5192;DHT22;2615;44.524;11.284;2023-02-15T12:04:50;19.80;36.50
5192;DHT22;2615;44.524;11.284;2023-02-15T12:07:23;20.00;36.40
5192;DHT22;2615;44.524;11.284;2023-02-15T12:09:57;20.30;36.40
5192;DHT22;2615;44.524;11.284;2023-02-15T12:12:28;20.80;36.50
5192;DHT22;2615;44.524;11.284;2023-02-15T12:17:28;22.50;35.70
5192;DHT22;2615;44.524;11.284;2023-02-15T12:19:59;24.20;35.50
5192;DHT22;2615;44.524;11.284;2023-02-15T12:22:30;24.70;34.50
5192;DHT22;2615;44.524;11.284;2023-02-15T12:25:01;25.30;34.60
5192;DHT22;2615;44.524;11.284;2023-02-15T12:30:04;26.90;32.20
5192;DHT22;2615;44.524;11.284;2023-02-15T12:32:35;28.20;31.00
5192;DHT22;2615;44.524;11.284;2023-02-15T12:35:09;28.70;30.80
5192;DHT22;2615;44.524;11.284;2023-02-15T12:37:52;28.70;30.20
5192;DHT22;2615;44.524;11.284;2023-02-15T12:40:23;29.40;29.70
5192;DHT22;2615;44.524;11.284;2023-02-15T12:42:54;29.90;29.60
5192;DHT22;2615;44.524;11.284;2023-02-15T12:48:10;30.70;28.00
5192;DHT22;2615;44.524;11.284;2023-02-15T12:50:43;31.10;27.70
5192;DHT22;2615;44.524;11.284;2023-02-15T12:53:15;31.40;27.70
5192;DHT22;2615;44.524;11.284;2023-02-15T12:55:53;31.80;27.20
5192;DHT22;2615;44.524;11.284;2023-02-15T12:58:24;32.00;26.70
5192;DHT22;2615;44.524;11.284;2023-02-15T13:01:09;32.20;26.60
5192;DHT22;2615;44.524;11.284;2023-02-15T13:06:07;32.80;25.70
5192;DHT22;2615;44.524;11.284;2023-02-15T13:08:39;33.00;25.80
5192;DHT22;2615;44.524;11.284;2023-02-15T13:11:19;33.30;25.40
5192;DHT22;2615;44.524;11.284;2023-02-15T13:13:53;33.30;24.90
5192;DHT22;2615;44.524;11.284;2023-02-15T13:16:28;33.60;24.70
5192;DHT22;2615;44.524;11.284;2023-02-15T13:19:03;33.60;24.40
5192;DHT22;2615;44.524;11.284;2023-02-15T13:21:35;33.60;24.10
5192;DHT22;2615;44.524;11.284;2023-02-15T13:24:06;33.50;23.90
5192;DHT22;2615;44.524;11.284;2023-02-15T13:26:35;33.30;23.90
5192;DHT22;2615;44.524;11.284;2023-02-15T13:29:10;33.00;23.80
5192;DHT22;2615;44.524;11.284;2023-02-15T13:31:40;32.60;23.60
5192;DHT22;2615;44.524;11.284;2023-02-15T13:34:11;32.30;23.70
5192;DHT22;2615;44.524;11.284;2023-02-15T13:36:47;32.10;23.70
5192;DHT22;2615;44.524;11.284;2023-02-15T13:39:23;31.80;23.50
5192;DHT22;2615;44.524;11.284;2023-02-15T13:41:58;31.50;23.60
5192;DHT22;2615;44.524;11.284;2023-02-15T13:47:28;30.50;23.60
5192;DHT22;2615;44.524;11.284;2023-02-15T13:50:20;29.70;23.90
5192;DHT22;2615;44.524;11.284;2023-02-15T13:53:01;28.90;23.90
5192;DHT22;2615;44.524;11.284;2023-02-15T13:55:37;28.20;24.40
5192;DHT22;2615;44.524;11.284;2023-02-15T14:01:10;27.00;24.60
5192;DHT22;2615;44.524;11.284;2023-02-15T14:04:02;26.40;25.00
5192;DHT22;2615;44.524;11.284;2023-02-15T14:09:23;25.40;25.00
5192;DHT22;2615;44.524;11.284;2023-02-15T14:12:04;25.10;25.70
5192;DHT22;2615;44.524;11.284;2023-02-15T14:17:52;24.70;25.80
5192;DHT22;2615;44.524;11.284;2023-02-15T14:23:00;24.10;25.60
5192;DHT22;2615;44.524;11.284;2023-02-15T14:25:36;23.90;26.10
5192;DHT22;2615;44.524;11.284;2023-02-15T14:28:09;23.60;26.20
5192;DHT22;2615;44.524;11.284;2023-02-15T14:30:41;23.40;26.30
5192;DHT22;2615;44.524;11.284;2023-02-15T14:33:28;23.20;26.50
5192;DHT22;2615;44.524;11.284;2023-02-15T14:36:01;23.10;26.60
5192;DHT22;2615;44.524;11.284;2023-02-15T14:38:43;23.00;26.70
5192;DHT22;2615;44.524;11.284;2023-02-15T14:41:18;22.90;26.80
5192;DHT22;2615;44.524;11.284;2023-02-15T14:43:52;22.80;27.00
5192;DHT22;2615;44.524;11.284;2023-02-15T14:46:30;22.70;27.10
5192;DHT22;2615;44.524;11.284;2023-02-15T14:49:09;22.50;27.10
5192;DHT22;2615;44.524;11.284;2023-02-15T14:51:57;22.20;27.10
5192;DHT22;2615;44.524;11.284;2023-02-15T14:54:54;22.00;27.20
5192;DHT22;2615;44.524;11.284;2023-02-15T14:57:26;21.90;27.40
5192;DHT22;2615;44.524;11.284;2023-02-15T14:59:56;21.90;27.50
5192;DHT22;2615;44.524;11.284;2023-02-15T15:02:27;21.90;27.70
5192;DHT22;2615;44.524;11.284;2023-02-15T15:05:02;22.10;27.90
5192;DHT22;2615;44.524;11.284;2023-02-15T15:07:43;22.40;27.90
5192;DHT22;2615;44.524;11.284;2023-02-15T15:10:35;22.60;27.80
5192;DHT22;2615;44.524;11.284;2023-02-15T15:16:24;22.50;27.60
5192;DHT22;2615;44.524;11.284;2023-02-15T15:18:52;22.30;27.60
5192;DHT22;2615;44.524;11.284;2023-02-15T15:21:53;22.20;27.70
5192;DHT22;2615;44.524;11.284;2023-02-15T15:24:47;22.30;27.80
5192;DHT22;2615;44.524;11.284;2023-02-15T15:27:40;22.60;27.90
5192;DHT22;2615;44.524;11.284;2023-02-15T15:30:47;23.10;28.00
5192;DHT22;2615;44.524;11.284;2023-02-15T15:40:09;23.90;27.30
5192;DHT22;2615;44.524;11.284;2023-02-15T15:42:49;23.40;27.20
5192;DHT22;2615;44.524;11.284;2023-02-15T15:45:45;22.70;27.30
5192;DHT22;2615;44.524;11.284;2023-02-15T15:48:30;22.10;27.40
5192;DHT22;2615;44.524;11.284;2023-02-15T15:51:03;21.60;27.60
5192;DHT22;2615;44.524;11.284;2023-02-15T15:53:39;21.20;27.80
5192;DHT22;2615;44.524;11.284;2023-02-15T15:56:13;20.70;27.80
5192;DHT22;2615;44.524;11.284;2023-02-15T15:58:45;20.40;28.00
5192;DHT22;2615;44.524;11.284;2023-02-15T16:01:15;20.00;28.10
5192;DHT22;2615;44.524;11.284;2023-02-15T16:03:50;19.70;28.30
5192;DHT22;2615;44.524;11.284;2023-02-15T16:06:34;19.40;28.50
5192;DHT22;2615;44.524;11.284;2023-02-15T16:09:14;19.20;28.80
5192;DHT22;2615;44.524;11.284;2023-02-15T16:11:46;18.90;29.00
5192;DHT22;2615;44.524;11.284;2023-02-15T16:14:16;18.60;29.10
5192;DHT22;2615;44.524;11.284;2023-02-15T16:16:48;18.40;29.40
5192;DHT22;2615;44.524;11.284;2023-02-15T16:19:22;18.20;29.60
5192;DHT22;2615;44.524;11.284;2023-02-15T16:21:51;17.90;29.70
5192;DHT22;2615;44.524;11.284;2023-02-15T16:24:25;17.70;29.80
5192;DHT22;2615;44.524;11.284;2023-02-15T16:27:19;17.50;29.90
5192;DHT22;2615;44.524;11.284;2023-02-15T16:29:50;17.30;30.10
5192;DHT22;2615;44.524;11.284;2023-02-15T16:32:20;17.10;30.20
5192;DHT22;2615;44.524;11.284;2023-02-15T16:34:52;16.90;30.40
5192;DHT22;2615;44.524;11.284;2023-02-15T16:37:22;16.70;30.80
5192;DHT22;2615;44.524;11.284;2023-02-15T16:39:53;16.50;31.00
5192;DHT22;2615;44.524;11.284;2023-02-15T16:42:23;16.30;31.10
5192;DHT22;2615;44.524;11.284;2023-02-15T16:44:54;16.10;31.40
5192;DHT22;2615;44.524;11.284;2023-02-15T16:47:25;16.00;31.70
5192;DHT22;2615;44.524;11.284;2023-02-15T16:49:57;15.80;31.80
5192;DHT22;2615;44.524;11.284;2023-02-15T16:52:27;15.60;32.00
5192;DHT22;2615;44.524;11.284;2023-02-15T16:54:57;15.50;32.20
5192;DHT22;2615;44.524;11.284;2023-02-15T16:57:31;15.30;32.30
5192;DHT22;2615;44.524;11.284;2023-02-15T17:00:05;15.20;32.60
5192;DHT22;2615;44.524;11.284;2023-02-15T17:02:34;15.00;32.70
5192;DHT22;2615;44.524;11.284;2023-02-15T17:05:22;14.90;32.80
5192;DHT22;2615;44.524;11.284;2023-02-15T17:08:04;14.80;33.00
5192;DHT22;2615;44.524;11.284;2023-02-15T17:10:34;14.70;33.10
5192;DHT22;2615;44.524;11.284;2023-02-15T17:13:10;14.60;33.20
5192;DHT22;2615;44.524;11.284;2023-02-15T17:15:39;14.40;33.50
5192;DHT22;2615;44.524;11.284;2023-02-15T17:18:12;14.30;33.60
5192;DHT22;2615;44.524;11.284;2023-02-15T17:20:43;14.20;33.80
5192;DHT22;2615;44.524;11.284;2023-02-15T17:23:22;14.10;33.90
5192;DHT22;2615;44.524;11.284;2023-02-15T17:25:53;14.00;34.10